Time;durP1;ratioP1;P1;durP2;ratioP2;P2;SDS_P1;SDS_P2;PMS_P1;PMS_P2;Temp;Humidity;BMP_temperature;BMP_pressure;BME280_temperature;BME280_humidity;BME280_pressure;Samples;Min_cycle;Max_cycle;Signal;HPM_P1;HPM_P2
2023/06/25 00:02:10;;;;;;;7.45;4.13;;;21.30;99.90;;;;;;4964056;28;20134;-37
2023/06/25 00:04:36;;;;;;;6.05;3.90;;;21.20;99.90;;;;;;4966729;28;20141;-37
2023/06/25 00:07:03;;;;;;;6.68;4.03;;;21.20;99.90;;;;;;4967362;28;20062;-37
2023/06/25 00:09:29;;;;;;;7.30;3.78;;;21.20;99.90;;;;;;4967348;28;20062;-37
2023/06/25 00:11:57;;;;;;;8.70;4.70;;;21.10;99.90;;;;;;4964815;28;20062;-37
2023/06/25 00:14:23;;;;;;;5.38;3.13;;;21.10;99.90;;;;;;4964630;28;20042;-36
2023/06/25 00:16:49;;;;;;;7.57;4.50;;;21.10;99.90;;;;;;4963198;28;20043;-36
2023/06/25 00:19:17;;;;;;;7.95;4.15;;;21.10;99.90;;;;;;4964364;28;20473;-36
2023/06/25 00:21:43;;;;;;;6.78;4.07;;;21.10;99.90;;;;;;4966636;28;20061;-37
2023/06/25 00:24:08;;;;;;;7.85;4.32;;;21.00;99.90;;;;;;4958622;28;20416;-38
2023/06/25 00:26:34;;;;;;;6.30;3.78;;;21.00;99.90;;;;;;4962182;28;20133;-37
2023/06/25 00:29:00;;;;;;;7.60;4.13;;;21.00;99.90;;;;;;4964515;28;20046;-37
2023/06/25 00:31:25;;;;;;;5.85;3.75;;;20.90;99.90;;;;;;4966303;28;20119;-36
2023/06/25 00:33:51;;;;;;;6.65;3.83;;;20.90;99.90;;;;;;4960203;28;20062;-37
2023/06/25 00:36:16;;;;;;;6.10;4.25;;;20.90;99.90;;;;;;4965466;28;20051;-37
2023/06/25 00:38:42;;;;;;;4.97;3.40;;;20.80;99.90;;;;;;4965465;28;20065;-35
2023/06/25 00:41:12;;;;;;;10.15;4.78;;;20.80;99.90;;;;;;4965724;28;20414;-38
2023/06/25 00:43:41;;;;;;;6.97;4.20;;;20.80;99.90;;;;;;4963762;28;20051;-37
2023/06/25 00:46:15;;;;;;;7.90;4.25;;;20.80;99.90;;;;;;4962245;28;20063;-36
2023/06/25 00:48:45;;;;;;;6.13;4.30;;;20.70;99.90;;;;;;4965204;28;20058;-37
2023/06/25 00:51:14;;;;;;;5.78;4.10;;;20.70;99.90;;;;;;4960313;28;20059;-37
2023/06/25 00:53:40;;;;;;;8.07;5.10;;;20.70;99.90;;;;;;4963747;28;20101;-38
2023/06/25 00:56:06;;;;;;;6.13;3.88;;;20.70;99.90;;;;;;4961214;28;20404;-37
2023/06/25 00:58:37;;;;;;;6.10;4.20;;;20.70;99.90;;;;;;4947810;28;20057;-37
2023/06/25 01:01:11;;;;;;;11.63;4.40;;;20.60;99.90;;;;;;4964590;28;20055;-36
2023/06/25 01:03:44;;;;;;;6.07;3.70;;;20.60;99.90;;;;;;4959205;28;20481;-37
2023/06/25 01:06:20;;;;;;;6.38;4.03;;;20.60;99.90;;;;;;4959110;28;20086;-37
2023/06/25 01:08:49;;;;;;;7.43;4.30;;;20.50;99.90;;;;;;4960343;28;20468;-37
2023/06/25 01:11:15;;;;;;;7.82;4.47;;;20.50;99.90;;;;;;4948674;28;20149;-38
2023/06/25 01:13:41;;;;;;;6.15;3.70;;;20.40;99.90;;;;;;4941479;28;20552;-38
2023/06/25 01:16:07;;;;;;;6.82;4.20;;;20.40;99.90;;;;;;4945094;28;20047;-37
2023/06/25 01:18:33;;;;;;;7.22;4.38;;;20.40;99.90;;;;;;4946668;28;20058;-37
2023/06/25 01:20:58;;;;;;;7.18;4.00;;;20.40;99.90;;;;;;4943788;28;20051;-37
2023/06/25 01:23:24;;;;;;;7.93;4.80;;;20.40;99.90;;;;;;4947198;28;20083;-37
2023/06/25 01:25:50;;;;;;;6.97;4.25;;;20.30;99.90;;;;;;4944143;28;20572;-36
2023/06/25 01:28:20;;;;;;;7.03;3.95;;;20.30;99.90;;;;;;4945644;28;20055;-37
2023/06/25 01:30:51;;;;;;;6.00;3.90;;;20.30;99.90;;;;;;4944602;28;20052;-37
2023/06/25 01:33:21;;;;;;;7.88;4.90;;;20.30;99.90;;;;;;4942693;28;20507;-36
2023/06/25 01:35:47;;;;;;;8.32;4.53;;;20.30;99.90;;;;;;4943598;28;20051;-37
2023/06/25 01:38:14;;;;;;;6.35;4.13;;;20.30;99.90;;;;;;4946670;28;20489;-36
2023/06/25 01:40:40;;;;;;;11.63;4.90;;;20.20;99.90;;;;;;4941237;28;20374;-37
2023/06/25 01:43:06;;;;;;;8.30;4.75;;;20.20;99.90;;;;;;4943145;28;20051;-37
2023/06/25 01:45:31;;;;;;;7.85;4.65;;;20.20;99.90;;;;;;4942833;28;20378;-37
2023/06/25 01:47:58;;;;;;;7.55;5.10;;;20.20;99.90;;;;;;4943034;28;20079;-37
2023/06/25 01:50:23;;;;;;;9.60;4.80;;;20.20;99.90;;;;;;4945498;28;20569;-37
2023/06/25 01:52:49;;;;;;;7.63;5.10;;;20.20;99.90;;;;;;4942979;28;20149;-37
2023/06/25 01:55:15;;;;;;;7.47;4.47;;;20.10;99.90;;;;;;4941139;28;20070;-37
2023/06/25 01:57:41;;;;;;;6.85;4.50;;;20.10;99.90;;;;;;4938514;28;20137;-38
2023/06/25 02:00:08;;;;;;;8.15;4.75;;;20.10;99.90;;;;;;4940758;28;20051;-37
2023/06/25 02:02:34;;;;;;;6.55;4.55;;;20.00;99.90;;;;;;4947594;28;20051;-38
2023/06/25 02:04:59;;;;;;;7.70;4.88;;;20.00;99.90;;;;;;4942826;28;20047;-36
2023/06/25 02:07:25;;;;;;;7.93;5.00;;;20.00;99.90;;;;;;4947271;28;20063;-38
2023/06/25 02:09:51;;;;;;;13.25;6.70;;;19.90;99.90;;;;;;4946498;28;20129;-37
2023/06/25 02:12:17;;;;;;;8.40;4.43;;;19.90;99.90;;;;;;4962644;28;20804;-37
2023/06/25 02:14:42;;;;;;;8.52;5.20;;;19.90;99.90;;;;;;4960685;28;20064;-37
2023/06/25 02:17:08;;;;;;;8.02;5.18;;;19.90;99.90;;;;;;4962408;28;20121;-38
2023/06/25 02:19:33;;;;;;;7.88;4.85;;;19.90;99.90;;;;;;4949656;28;20066;-38
2023/06/25 02:21:59;;;;;;;8.93;6.10;;;19.80;99.90;;;;;;4961627;28;20394;-36
2023/06/25 02:24:25;;;;;;;10.40;6.38;;;19.80;99.90;;;;;;4964048;28;20046;-38
2023/06/25 02:26:50;;;;;;;8.75;5.47;;;19.80;99.90;;;;;;4962275;28;20154;-37
2023/06/25 02:29:16;;;;;;;9.38;6.38;;;19.70;99.90;;;;;;4965745;28;20074;-37
2023/06/25 02:31:42;;;;;;;12.32;5.65;;;19.70;99.90;;;;;;4964749;28;20147;-37
2023/06/25 02:34:07;;;;;;;8.88;5.28;;;19.70;99.90;;;;;;4964636;28;20084;-37
2023/06/25 02:36:33;;;;;;;10.00;6.18;;;19.70;99.90;;;;;;4966063;28;20129;-37
2023/06/25 02:38:59;;;;;;;11.27;5.32;;;19.60;99.90;;;;;;4967470;28;20109;-36
2023/06/25 02:41:25;;;;;;;9.27;6.18;;;19.60;99.90;;;;;;4964643;28;20065;-36
2023/06/25 02:43:50;;;;;;;8.35;5.45;;;19.60;99.90;;;;;;4961069;28;20515;-36
2023/06/25 02:46:16;;;;;;;9.77;6.15;;;19.60;99.90;;;;;;4962906;28;20051;-37
2023/06/25 02:48:42;;;;;;;9.05;5.70;;;19.60;99.90;;;;;;4968751;28;20054;-37
2023/06/25 02:51:10;;;;;;;9.50;6.10;;;19.50;99.90;;;;;;4964533;28;20042;-36
2023/06/25 02:53:36;;;;;;;9.20;5.53;;;19.60;99.90;;;;;;4961701;28;20141;-36
2023/06/25 02:56:02;;;;;;;12.18;6.85;;;19.50;99.90;;;;;;4967062;28;20619;-36
2023/06/25 02:58:27;;;;;;;9.00;5.55;;;19.50;99.90;;;;;;4963293;28;20050;-36
2023/06/25 03:00:53;;;;;;;10.90;6.57;;;19.50;99.90;;;;;;4962581;28;20123;-37
2023/06/25 03:03:18;;;;;;;9.60;5.97;;;19.50;99.90;;;;;;4967225;28;20050;-37
2023/06/25 03:05:44;;;;;;;9.43;5.70;;;19.40;99.90;;;;;;4964656;28;20075;-37
2023/06/25 03:08:10;;;;;;;9.43;5.63;;;19.50;99.90;;;;;;4957490;28;20046;-36
2023/06/25 03:10:37;;;;;;;9.82;6.38;;;19.40;99.90;;;;;;4957910;28;20047;-35
2023/06/25 03:13:04;;;;;;;10.77;6.80;;;19.30;99.90;;;;;;4960761;28;20138;-36
2023/06/25 03:15:30;;;;;;;8.52;5.70;;;19.30;99.90;;;;;;4963853;28;20125;-37
2023/06/25 03:17:56;;;;;;;10.68;6.40;;;19.30;99.90;;;;;;4966235;28;20624;-38
2023/06/25 03:20:22;;;;;;;12.43;6.90;;;19.30;99.90;;;;;;4962075;28;20337;-38
2023/06/25 03:22:48;;;;;;;10.25;6.45;;;19.30;99.90;;;;;;4959986;28;20409;-37
2023/06/25 03:25:14;;;;;;;12.10;6.72;;;19.30;99.90;;;;;;4966150;28;20054;-35
2023/06/25 03:27:40;;;;;;;11.48;6.43;;;19.30;99.90;;;;;;4963687;28;20059;-36
2023/06/25 03:30:07;;;;;;;12.45;6.47;;;19.20;99.90;;;;;;4962666;28;20077;-36
2023/06/25 03:32:33;;;;;;;9.00;5.78;;;19.20;99.90;;;;;;4967179;28;20536;-37
2023/06/25 03:34:59;;;;;;;10.50;7.03;;;19.30;99.90;;;;;;4964206;28;20058;-37
2023/06/25 03:37:25;;;;;;;11.13;6.60;;;19.30;99.90;;;;;;4960484;28;20098;-37
2023/06/25 03:39:51;;;;;;;11.73;6.78;;;19.30;99.90;;;;;;4965597;28;20058;-37
2023/06/25 03:42:16;;;;;;;13.07;6.80;;;19.20;99.90;;;;;;4957464;28;20059;-37
2023/06/25 03:44:47;;;;;;;9.98;6.10;;;19.30;99.90;;;;;;4963528;28;20047;-37
2023/06/25 03:47:13;;;;;;;9.60;6.30;;;19.30;99.90;;;;;;4965545;28;20528;-37
2023/06/25 03:49:38;;;;;;;8.65;5.88;;;19.30;99.90;;;;;;4962449;28;20109;-37
2023/06/25 03:52:04;;;;;;;13.75;6.22;;;19.30;99.90;;;;;;4967572;28;20055;-37
2023/06/25 03:54:30;;;;;;;9.68;5.53;;;19.30;99.90;;;;;;4965146;28;20055;-37
2023/06/25 03:56:56;;;;;;;10.27;6.28;;;19.30;99.90;;;;;;4967712;28;20480;-36
2023/06/25 03:59:21;;;;;;;11.73;6.72;;;19.30;99.90;;;;;;4955451;28;20065;-35
2023/06/25 04:01:47;;;;;;;11.45;6.78;;;19.30;99.90;;;;;;4964385;28;20426;-36
2023/06/25 04:04:13;;;;;;;10.30;6.28;;;19.30;99.90;;;;;;4965532;28;20522;-36
2023/06/25 04:06:38;;;;;;;10.85;6.15;;;19.30;99.90;;;;;;4966120;28;20050;-37
2023/06/25 04:09:04;;;;;;;9.57;6.18;;;19.30;99.90;;;;;;4964705;28;20137;-37
2023/06/25 04:11:30;;;;;;;11.07;6.97;;;19.30;99.90;;;;;;4962886;28;20046;-37
2023/06/25 04:13:55;;;;;;;9.30;6.28;;;19.30;99.90;;;;;;4962666;28;20058;-37
2023/06/25 04:16:21;;;;;;;9.98;6.43;;;19.30;99.90;;;;;;4962311;28;20424;-36
2023/06/25 04:18:47;;;;;;;8.40;5.75;;;19.30;99.90;;;;;;4961120;28;20496;-36
2023/06/25 04:21:12;;;;;;;11.05;6.43;;;19.30;99.90;;;;;;4960878;28;20059;-37
2023/06/25 04:23:38;;;;;;;10.18;7.22;;;19.40;99.90;;;;;;4964149;28;20915;-37
2023/06/25 04:26:04;;;;;;;10.52;6.43;;;19.40;99.90;;;;;;4965830;28;20181;-37
2023/06/25 04:28:30;;;;;;;10.90;5.90;;;19.40;99.90;;;;;;4956525;28;20047;-36
2023/06/25 04:30:56;;;;;;;10.88;6.50;;;19.40;99.90;;;;;;4958870;28;20065;-37
2023/06/25 04:33:21;;;;;;;8.20;5.32;;;19.50;99.90;;;;;;4960826;28;20051;-36
2023/06/25 04:35:47;;;;;;;10.35;6.13;;;19.50;99.90;;;;;;4960463;28;20404;-37
2023/06/25 04:38:13;;;;;;;10.60;5.88;;;19.50;99.90;;;;;;4961618;28;20054;-36
2023/06/25 04:40:40;;;;;;;11.65;6.03;;;19.50;99.90;;;;;;4958609;28;20134;-36
2023/06/25 04:43:06;;;;;;;9.77;5.80;;;19.60;99.90;;;;;;4961235;28;20055;-37
2023/06/25 04:45:32;;;;;;;10.45;6.03;;;19.60;99.90;;;;;;4962791;28;20042;-36
2023/06/25 04:47:57;;;;;;;9.65;6.30;;;19.60;99.90;;;;;;4961647;28;20050;-37
2023/06/25 04:50:23;;;;;;;9.23;6.28;;;19.60;99.90;;;;;;4961618;28;20070;-37
2023/06/25 04:52:49;;;;;;;9.40;6.40;;;19.70;99.90;;;;;;4965269;28;20058;-37
2023/06/25 04:55:14;;;;;;;9.48;5.10;;;19.70;99.90;;;;;;4958742;28;20413;-38
2023/06/25 04:57:40;;;;;;;10.15;6.72;;;19.80;99.90;;;;;;4963196;28;20085;-37
2023/06/25 05:00:07;;;;;;;11.52;6.13;;;19.80;99.90;;;;;;4958103;28;20480;-36
2023/06/25 05:02:32;;;;;;;10.38;5.75;;;19.80;99.90;;;;;;4960272;28;20085;-37
2023/06/25 05:04:58;;;;;;;10.23;6.53;;;19.90;99.90;;;;;;4963603;28;20505;-36
2023/06/25 05:07:24;;;;;;;9.77;6.15;;;19.90;99.90;;;;;;4964575;28;20500;-38
2023/06/25 05:09:49;;;;;;;9.57;6.18;;;20.00;99.90;;;;;;4959726;28;20050;-37
2023/06/25 05:12:15;;;;;;;10.52;6.85;;;20.10;99.90;;;;;;4951950;28;20315;-37
2023/06/25 05:14:42;;;;;;;9.27;5.68;;;20.10;99.90;;;;;;4959270;28;20460;-38
2023/06/25 05:17:07;;;;;;;9.63;6.43;;;20.20;99.90;;;;;;4964730;28;20047;-38
2023/06/25 05:19:33;;;;;;;9.65;6.15;;;20.30;99.90;;;;;;4965840;28;20109;-37
2023/06/25 05:21:59;;;;;;;9.30;6.40;;;20.30;99.90;;;;;;4961875;28;20047;-37
2023/06/25 05:24:24;;;;;;;10.25;5.50;;;20.30;99.90;;;;;;4957139;28;20059;-37
2023/06/25 05:26:50;;;;;;;11.73;7.35;;;20.40;99.90;;;;;;4968790;28;20082;-37
2023/06/25 05:29:15;;;;;;;14.80;7.38;;;20.40;99.90;;;;;;4957347;28;20054;-36
2023/06/25 05:31:41;;;;;;;11.68;7.13;;;20.50;99.90;;;;;;4958419;28;20058;-37
2023/06/25 05:34:07;;;;;;;10.10;6.53;;;20.50;99.90;;;;;;4961376;28;20141;-38
2023/06/25 05:36:32;;;;;;;13.07;7.20;;;20.60;99.90;;;;;;4963339;28;20055;-37
2023/06/25 05:38:58;;;;;;;14.55;7.10;;;20.70;99.90;;;;;;4963814;28;20126;-38
2023/06/25 05:41:24;;;;;;;13.93;6.88;;;20.70;99.90;;;;;;4960594;28;20146;-38
2023/06/25 05:43:49;;;;;;;10.35;7.20;;;20.80;99.90;;;;;;4969156;28;20047;-37
2023/06/25 05:46:15;;;;;;;15.10;7.55;;;20.80;99.90;;;;;;4965434;28;20409;-36
2023/06/25 05:48:41;;;;;;;10.65;6.38;;;20.90;99.90;;;;;;4961564;28;20050;-36
2023/06/25 05:51:07;;;;;;;8.98;5.82;;;21.00;99.90;;;;;;4964328;28;21410;-37
2023/06/25 05:53:41;;;;;;;11.82;8.15;;;21.10;99.90;;;;;;4968059;28;20194;-37
2023/06/25 05:56:07;;;;;;;12.45;7.95;;;21.20;99.90;;;;;;4961083;28;20069;-37
2023/06/25 05:58:36;;;;;;;10.88;6.93;;;21.20;99.90;;;;;;4962503;28;20043;-38
2023/06/25 06:01:05;;;;;;;10.43;7.00;;;21.30;99.90;;;;;;4954614;28;20054;-37
2023/06/25 06:03:31;;;;;;;11.50;7.22;;;21.30;99.90;;;;;;4965618;28;20055;-38
2023/06/25 06:05:57;;;;;;;14.38;8.85;;;21.50;99.90;;;;;;4946535;28;20477;-37
2023/06/25 06:08:23;;;;;;;14.07;7.93;;;21.50;99.90;;;;;;4961641;28;20560;-37
2023/06/25 06:10:49;;;;;;;11.80;8.65;;;21.60;99.90;;;;;;4965333;28;20054;-37
2023/06/25 06:13:15;;;;;;;10.45;6.95;;;21.60;99.90;;;;;;4970987;28;20055;-37
2023/06/25 06:15:41;;;;;;;10.32;6.75;;;21.80;99.90;;;;;;4959724;28;20042;-37
2023/06/25 06:18:07;;;;;;;9.85;7.10;;;21.80;99.90;;;;;;4963193;28;20671;-38
2023/06/25 06:20:33;;;;;;;13.05;8.95;;;21.90;99.90;;;;;;4959843;28;20050;-37
2023/06/25 06:22:59;;;;;;;13.73;7.20;;;21.90;99.90;;;;;;4969504;28;20558;-36
2023/06/25 06:25:25;;;;;;;10.65;7.47;;;22.10;99.90;;;;;;4970973;28;20062;-38
2023/06/25 06:27:52;;;;;;;10.52;8.07;;;22.10;99.90;;;;;;4970652;28;20062;-37
2023/06/25 06:30:18;;;;;;;16.20;8.45;;;22.20;99.90;;;;;;4951120;28;20505;-37
2023/06/25 06:32:43;;;;;;;12.95;8.73;;;22.30;99.90;;;;;;4961602;28;20081;-38
2023/06/25 06:35:10;;;;;;;11.57;7.88;;;22.40;99.90;;;;;;4965296;28;20142;-38
2023/06/25 06:37:35;;;;;;;10.40;8.15;;;22.40;99.90;;;;;;4966433;28;20164;-37
2023/06/25 06:40:01;;;;;;;9.65;7.57;;;22.50;99.90;;;;;;4961055;28;20071;-37
2023/06/25 06:42:27;;;;;;;10.30;7.25;;;22.70;99.90;;;;;;4962890;28;20058;-38
2023/06/25 06:44:53;;;;;;;11.80;8.43;;;22.80;99.90;;;;;;4959265;28;20401;-37
2023/06/25 06:47:19;;;;;;;11.15;9.25;;;22.90;99.90;;;;;;4941013;28;20058;-37
2023/06/25 06:49:46;;;;;;;11.88;8.32;;;22.90;99.90;;;;;;4959607;28;20458;-37
2023/06/25 06:52:13;;;;;;;10.25;8.00;;;23.00;99.90;;;;;;4963155;28;20066;-37
2023/06/25 06:54:39;;;;;;;11.52;8.85;;;23.00;99.90;;;;;;4964266;28;20105;-37
2023/06/25 06:57:05;;;;;;;13.75;8.93;;;23.10;99.90;;;;;;4967519;28;20058;-37
2023/06/25 06:59:30;;;;;;;11.32;9.02;;;23.20;99.90;;;;;;4963269;28;20078;-36
2023/06/25 07:01:56;;;;;;;11.77;9.05;;;23.20;99.90;;;;;;4960594;28;20122;-37
2023/06/25 07:04:23;;;;;;;10.00;7.95;;;23.30;99.90;;;;;;4966173;28;20054;-37
2023/06/25 07:06:48;;;;;;;10.63;8.27;;;23.40;99.90;;;;;;4962151;28;20420;-38
2023/06/25 07:09:24;;;;;;;10.93;7.97;;;23.50;99.90;;;;;;4964848;28;20457;-38
2023/06/25 07:11:49;;;;;;;9.75;7.22;;;23.60;99.90;;;;;;4965863;28;20058;-38
2023/06/25 07:14:15;;;;;;;10.77;7.97;;;23.70;99.90;;;;;;4966660;28;20061;-37
2023/06/25 07:16:44;;;;;;;8.18;6.53;;;23.80;99.90;;;;;;4964872;28;20138;-37
2023/06/25 07:19:10;;;;;;;10.57;8.32;;;24.00;99.90;;;;;;4962513;28;20086;-38
2023/06/25 07:21:36;;;;;;;11.52;8.32;;;24.10;99.90;;;;;;4967208;28;20470;-37
2023/06/25 07:24:02;;;;;;;8.63;6.68;;;24.20;99.90;;;;;;4967358;28;20053;-38
2023/06/25 07:26:28;;;;;;;11.27;7.97;;;24.30;99.90;;;;;;4967774;28;20122;-38
2023/06/25 07:28:53;;;;;;;8.93;6.88;;;24.40;99.90;;;;;;4963046;28;20058;-37
2023/06/25 07:31:19;;;;;;;11.65;7.28;;;24.40;99.90;;;;;;4942241;28;20158;-38
2023/06/25 07:33:45;;;;;;;10.95;6.05;;;24.50;99.90;;;;;;4958041;28;20058;-37
2023/06/25 07:36:10;;;;;;;9.95;6.82;;;24.60;99.90;;;;;;4962891;28;20145;-37
2023/06/25 07:38:36;;;;;;;9.00;5.97;;;24.60;99.90;;;;;;4961038;28;20504;-37
2023/06/25 07:41:02;;;;;;;11.48;7.00;;;24.70;99.90;;;;;;4961767;28;20059;-37
2023/06/25 07:43:27;;;;;;;12.13;6.30;;;24.70;99.90;;;;;;4964609;28;20043;-38
2023/06/25 07:45:53;;;;;;;7.80;5.45;;;24.80;99.90;;;;;;4962512;28;20059;-37
2023/06/25 07:48:18;;;;;;;8.45;6.72;;;25.00;99.90;;;;;;4964580;28;20047;-38
2023/06/25 07:50:44;;;;;;;8.23;5.32;;;25.10;99.90;;;;;;4967503;28;20493;-38
2023/06/25 07:53:10;;;;;;;7.20;5.22;;;25.20;99.90;;;;;;4963897;28;20733;-38
2023/06/25 07:55:41;;;;;;;7.22;4.93;;;25.30;99.90;;;;;;4960933;28;20371;-37
2023/06/25 07:58:07;;;;;;;6.53;4.72;;;25.40;99.90;;;;;;4960798;28;20058;-38
2023/06/25 08:00:34;;;;;;;7.03;5.00;;;25.60;99.90;;;;;;4960807;28;20046;-38
2023/06/25 08:03:00;;;;;;;12.18;5.57;;;25.60;99.90;;;;;;4945514;28;20357;-37
2023/06/25 08:05:26;;;;;;;8.75;5.32;;;25.60;99.90;;;;;;4961442;28;20113;-37
2023/06/25 08:07:52;;;;;;;7.72;4.95;;;25.70;99.90;;;;;;4965726;28;20082;-37
2023/06/25 08:10:17;;;;;;;6.40;4.70;;;25.80;99.90;;;;;;4945165;28;20428;-39
2023/06/25 08:12:43;;;;;;;7.35;3.90;;;25.90;99.90;;;;;;4963553;28;20453;-38
2023/06/25 08:15:10;;;;;;;6.35;4.03;;;26.00;99.90;;;;;;4964713;28;20497;-37
2023/06/25 08:17:36;;;;;;;6.32;3.47;;;26.10;99.90;;;;;;4964677;28;20057;-38
2023/06/25 08:20:02;;;;;;;6.57;4.43;;;26.20;99.90;;;;;;4964978;28;20054;-38
2023/06/25 08:22:28;;;;;;;4.72;3.40;;;26.40;99.90;;;;;;4947304;28;20087;-38
2023/06/25 08:24:55;;;;;;;5.82;3.40;;;26.50;99.90;;;;;;4966773;28;20090;-37
2023/06/25 08:27:20;;;;;;;4.60;3.20;;;26.50;99.90;;;;;;4965199;28;20054;-38
2023/06/25 08:29:46;;;;;;;4.88;2.90;;;26.60;99.90;;;;;;4956253;28;20058;-37
2023/06/25 08:32:12;;;;;;;5.30;2.95;;;26.60;99.90;;;;;;4960506;28;20061;-37
2023/06/25 08:34:38;;;;;;;4.32;3.08;;;26.70;99.90;;;;;;4963406;28;20066;-37
2023/06/25 08:37:04;;;;;;;4.38;2.58;;;26.70;99.90;;;;;;4963918;28;20058;-38
2023/06/25 08:39:29;;;;;;;4.30;2.95;;;26.80;99.90;;;;;;4948965;28;20121;-38
2023/06/25 08:41:55;;;;;;;5.93;3.45;;;26.80;99.90;;;;;;4956580;28;20066;-38
2023/06/25 08:44:21;;;;;;;4.65;2.63;;;26.90;99.90;;;;;;4961496;28;20055;-37
2023/06/25 08:46:48;;;;;;;4.30;2.92;;;26.90;99.90;;;;;;4968365;28;20061;-37
2023/06/25 08:49:15;;;;;;;5.75;2.85;;;27.10;99.90;;;;;;4967184;28;20043;-37
2023/06/25 08:51:41;;;;;;;4.70;2.10;;;27.10;99.90;;;;;;4967344;28;20525;-37
2023/06/25 08:54:07;;;;;;;4.47;2.75;;;27.30;99.90;;;;;;4967692;28;20062;-38
2023/06/25 08:56:33;;;;;;;7.10;4.20;;;27.40;99.90;;;;;;4964928;28;20162;-37
2023/06/25 08:58:59;;;;;;;5.35;3.50;;;27.50;99.90;;;;;;4945892;28;20899;-36
2023/06/25 09:01:25;;;;;;;6.18;3.17;;;27.50;99.90;;;;;;4965367;28;20124;-37
2023/06/25 09:03:52;;;;;;;4.10;3.15;;;27.60;99.90;;;;;;4960096;28;20421;-37
2023/06/25 09:06:18;;;;;;;4.38;2.85;;;27.60;99.90;;;;;;4967181;28;20054;-36
2023/06/25 09:08:44;;;;;;;4.47;2.83;;;27.70;99.90;;;;;;4965928;28;20073;-37
2023/06/25 09:11:10;;;;;;;5.28;2.78;;;27.80;99.90;;;;;;4963505;28;20110;-37
2023/06/25 09:13:38;;;;;;;6.47;3.58;;;27.90;99.90;;;;;;4971392;28;20046;-37
2023/06/25 09:16:06;;;;;;;6.38;3.08;;;28.00;99.90;;;;;;4944775;28;20433;-37
2023/06/25 09:18:32;;;;;;;5.88;3.30;;;28.00;99.90;;;;;;4957892;28;20039;-37
2023/06/25 09:21:06;;;;;;;4.93;3.10;;;28.10;99.90;;;;;;4964687;28;20074;-37
2023/06/25 09:23:33;;;;;;;5.68;2.92;;;28.10;99.90;;;;;;4960975;28;20051;-36
2023/06/25 09:26:05;;;;;;;5.18;3.60;;;28.20;99.90;;;;;;4945950;28;20043;-37
2023/06/25 09:28:31;;;;;;;;;;;28.20;99.90;;;;;;4970193;28;20046;-38
2023/06/25 09:30:57;;;;;;;5.15;3.05;;;28.20;99.90;;;;;;4967978;28;20387;-36
2023/06/25 09:33:31;;;;;;;7.50;3.30;;;28.30;99.90;;;;;;4971885;28;20082;-36
2023/06/25 09:36:01;;;;;;;6.13;3.22;;;28.40;99.90;;;;;;4966275;28;20047;-37
2023/06/25 09:38:27;;;;;;;4.28;2.88;;;28.50;99.90;;;;;;4974498;28;20134;-37
2023/06/25 09:40:55;;;;;;;7.13;3.38;;;28.60;99.90;;;;;;4967841;28;20620;-37
2023/06/25 09:43:21;;;;;;;5.65;2.92;;;28.70;99.90;;;;;;4969463;28;20150;-37
2023/06/25 09:45:46;;;;;;;6.32;3.50;;;28.80;99.90;;;;;;4956843;28;20089;-37
2023/06/25 09:48:13;;;;;;;5.57;3.10;;;29.00;99.90;;;;;;4961512;28;20133;-37
2023/06/25 09:50:42;;;;;;;7.07;3.25;;;29.00;99.90;;;;;;4968312;28;20074;-37
2023/06/25 09:53:16;;;;;;;6.03;3.17;;;29.00;99.90;;;;;;4966005;28;20444;-37
2023/06/25 09:55:42;;;;;;;4.35;2.55;;;29.00;99.90;;;;;;4968884;28;20058;-36
2023/06/25 09:58:09;;;;;;;5.05;2.90;;;29.00;99.90;;;;;;4952857;28;20121;-37
2023/06/25 10:00:38;;;;;;;4.30;2.28;;;29.00;99.90;;;;;;4966342;28;20114;-36
2023/06/25 10:03:04;;;;;;;4.85;2.50;;;29.00;99.90;;;;;;4963514;28;20074;-36
2023/06/25 10:05:31;;;;;;;4.50;2.60;;;29.20;99.90;;;;;;4967866;28;20185;-36
2023/06/25 10:07:58;;;;;;;4.93;2.72;;;29.30;99.90;;;;;;4952125;28;20178;-35
2023/06/25 10:10:27;;;;;;;5.07;2.60;;;29.40;99.90;;;;;;4970616;28;20062;-35
2023/06/25 10:12:52;;;;;;;4.97;2.70;;;29.50;99.90;;;;;;4969700;28;20055;-35
2023/06/25 10:15:36;;;;;;;3.78;1.73;;;29.60;99.90;;;;;;4966504;28;20050;-35
2023/06/25 10:18:04;;;;;;;3.92;2.13;;;29.70;99.90;;;;;;4969220;28;20051;-36
2023/06/25 10:20:32;;;;;;;3.67;2.10;;;29.80;99.90;;;;;;4966256;28;21509;-35
2023/06/25 10:23:04;;;;;;;3.85;2.15;;;29.90;99.90;;;;;;4967416;28;20054;-35
2023/06/25 10:25:30;;;;;;;5.45;2.78;;;29.90;99.90;;;;;;4966724;28;20047;-35
2023/06/25 10:28:08;;;;;;;4.32;2.35;;;30.00;99.90;;;;;;4965410;28;20460;-35
2023/06/25 10:30:46;;;;;;;3.20;1.95;;;30.10;99.90;;;;;;4962977;28;20065;-36
2023/06/25 10:33:15;;;;;;;3.80;2.45;;;30.10;99.90;;;;;;4964929;28;20061;-36
2023/06/25 10:35:43;;;;;;;3.20;1.98;;;30.10;99.90;;;;;;4964124;28;20492;-36
2023/06/25 10:38:09;;;;;;;3.47;2.28;;;30.20;99.90;;;;;;4965972;28;20045;-36
2023/06/25 10:40:36;;;;;;;4.55;2.22;;;30.20;99.90;;;;;;4965095;28;20047;-36
2023/06/25 10:43:03;;;;;;;3.47;2.47;;;30.30;99.90;;;;;;4966443;28;20062;-35
2023/06/25 10:45:29;;;;;;;4.38;2.50;;;30.40;99.90;;;;;;4961595;28;20050;-36
2023/06/25 10:48:07;;;;;;;4.50;2.70;;;30.30;99.90;;;;;;4965247;28;20043;-36
2023/06/25 10:50:34;;;;;;;3.92;2.95;;;30.50;99.90;;;;;;4962921;28;20058;-35
2023/06/25 10:53:01;;;;;;;3.05;2.38;;;30.50;99.90;;;;;;4963251;28;20054;-36
2023/06/25 10:55:27;;;;;;;7.22;2.70;;;30.60;99.90;;;;;;4961059;28;20146;-36
2023/06/25 10:57:54;;;;;;;5.82;2.72;;;30.60;99.90;;;;;;4968666;28;20170;-36
2023/06/25 11:00:24;;;;;;;5.15;1.92;;;30.70;99.90;;;;;;4964652;28;20058;-36
2023/06/25 11:02:54;;;;;;;5.18;2.40;;;30.80;99.90;;;;;;4962618;28;20497;-36
2023/06/25 11:05:30;;;;;;;5.45;2.20;;;30.70;99.90;;;;;;4944545;28;20058;-36
2023/06/25 11:07:56;;;;;;;4.07;2.33;;;30.70;99.90;;;;;;4962915;28;20059;-34
2023/06/25 11:10:23;;;;;;;3.75;2.00;;;30.70;99.90;;;;;;4962243;28;20050;-35
2023/06/25 11:12:50;;;;;;;2.83;2.20;;;30.70;99.90;;;;;;4964813;28;20082;-35
2023/06/25 11:15:17;;;;;;;3.95;2.60;;;30.80;99.90;;;;;;4967969;28;20528;-35
2023/06/25 11:17:43;;;;;;;5.22;2.50;;;31.00;99.90;;;;;;4968758;28;20176;-35
2023/06/25 11:20:09;;;;;;;3.08;2.00;;;31.00;99.90;;;;;;4960785;28;20054;-35
2023/06/25 11:22:44;;;;;;;4.85;2.40;;;31.00;99.90;;;;;;4967927;28;20062;-35
2023/06/25 11:25:14;;;;;;;4.13;2.10;;;31.10;99.90;;;;;;4963996;28;20042;-35
2023/06/25 11:27:40;;;;;;;3.42;2.35;;;31.20;99.90;;;;;;4960775;28;20508;-34
2023/06/25 11:30:08;;;;;;;7.57;2.72;;;31.30;99.90;;;;;;4958912;28;20054;-34
2023/06/25 11:32:37;;;;;;;4.90;2.90;;;31.30;99.90;;;;;;4961014;28;20107;-34
2023/06/25 11:35:10;;;;;;;4.38;3.20;;;31.30;99.90;;;;;;4963933;28;20427;-34
2023/06/25 11:37:43;;;;;;;5.30;3.95;;;31.30;99.90;;;;;;4965285;28;20440;-34
2023/06/25 11:40:26;;;;;;;8.20;5.50;;;31.30;99.90;;;;;;4966296;28;20137;-35
2023/06/25 11:42:53;;;;;;;5.43;4.20;;;31.30;99.90;;;;;;4966410;28;20618;-34
2023/06/25 11:45:19;;;;;;;6.25;3.70;;;31.30;99.90;;;;;;4967698;28;20050;-35
2023/06/25 11:47:47;;;;;;;5.97;3.28;;;31.30;99.90;;;;;;4965487;28;20052;-35
2023/06/25 11:50:13;;;;;;;5.72;2.80;;;31.40;99.90;;;;;;4968944;28;20128;-35
2023/06/25 11:52:39;;;;;;;3.70;2.40;;;31.40;99.90;;;;;;4965026;28;20053;-35
2023/06/25 11:55:06;;;;;;;3.70;2.70;;;31.40;99.90;;;;;;4961920;28;20058;-35
2023/06/25 11:57:32;;;;;;;4.78;3.05;;;31.40;99.90;;;;;;4968296;28;20125;-34
2023/06/25 11:59:57;;;;;;;5.35;2.95;;;31.50;99.90;;;;;;4961617;28;20137;-35
2023/06/25 12:02:24;;;;;;;4.00;2.55;;;31.50;99.90;;;;;;4964891;28;20090;-35
2023/06/25 12:04:50;;;;;;;4.20;3.13;;;31.60;99.90;;;;;;4965001;28;20137;-34
2023/06/25 12:07:16;;;;;;;7.22;3.40;;;31.60;99.90;;;;;;4965783;28;20078;-35
2023/06/25 12:09:42;;;;;;;4.45;2.83;;;31.60;99.90;;;;;;4963581;28;20062;-34
2023/06/25 12:12:08;;;;;;;4.63;2.70;;;31.70;99.90;;;;;;4944833;28;20073;-35
2023/06/25 12:14:33;;;;;;;4.68;2.70;;;31.70;99.90;;;;;;4963362;28;20042;-34
2023/06/25 12:16:59;;;;;;;4.55;2.75;;;31.80;99.90;;;;;;4963799;28;20057;-35
2023/06/25 12:19:24;;;;;;;5.25;2.75;;;31.80;99.90;;;;;;4961418;28;20055;-35
2023/06/25 12:21:50;;;;;;;3.33;2.47;;;31.90;99.90;;;;;;4957454;28;20062;-35
2023/06/25 12:24:16;;;;;;;3.60;2.63;;;32.00;99.90;;;;;;4967467;28;20043;-35
2023/06/25 12:26:41;;;;;;;5.43;3.05;;;31.90;99.90;;;;;;4957584;28;20057;-35
2023/06/25 12:29:07;;;;;;;4.32;2.60;;;32.00;99.90;;;;;;4960491;28;20206;-35
2023/06/25 12:31:33;;;;;;;6.63;3.17;;;32.00;99.90;;;;;;4959625;28;20650;-35
2023/06/25 12:33:58;;;;;;;4.78;2.97;;;32.00;99.90;;;;;;4960867;28;20055;-35
2023/06/25 12:36:24;;;;;;;6.22;3.05;;;32.10;99.90;;;;;;4961689;28;20058;-35
2023/06/25 12:38:50;;;;;;;6.07;3.20;;;32.10;99.90;;;;;;4965245;28;20485;-35
2023/06/25 12:41:17;;;;;;;3.90;2.50;;;32.20;99.90;;;;;;4965215;28;20437;-35